createdAt,value
2022-09-12T00:00:07.848Z,16.67
2022-09-12T00:02:34.248Z,15.43
2022-09-12T00:05:00.622Z,16.50
2022-09-12T00:07:27.000Z,18.50
2022-09-12T00:09:53.436Z,18.08
2022-09-12T00:12:19.785Z,18.42
2022-09-12T00:14:46.125Z,17.92
2022-09-12T00:17:12.541Z,17.35
2022-09-12T00:19:38.890Z,15.95
2022-09-12T00:22:05.241Z,16.02
2022-09-12T00:24:31.610Z,17.15
2022-09-12T00:26:57.947Z,17.50
2022-09-12T00:29:24.332Z,18.85
2022-09-12T00:31:50.893Z,16.90
2022-09-12T00:34:17.317Z,17.42
2022-09-12T00:36:43.715Z,16.95
2022-09-12T00:39:11.617Z,17.50
2022-09-12T00:41:39.729Z,17.17
2022-09-12T00:44:12.085Z,15.95
2022-09-12T00:46:54.824Z,16.80
2022-09-12T00:49:30.290Z,16.10
2022-09-12T00:51:59.819Z,16.42
2022-09-12T00:54:30.671Z,16.00
2022-09-12T00:57:02.024Z,17.05
2022-09-12T00:59:40.230Z,15.75
2022-09-12T01:02:07.234Z,16.13
2022-09-12T01:04:34.982Z,16.08
2022-09-12T01:07:03.628Z,14.90
2022-09-12T01:09:30.059Z,15.80
2022-09-12T01:11:57.048Z,16.45
2022-09-12T01:14:23.438Z,16.33
2022-09-12T01:16:50.665Z,17.52
2022-09-12T01:19:51.271Z,16.38
2022-09-12T01:25:12.567Z,14.73
2022-09-12T01:28:07.027Z,16.17
2022-09-12T01:33:36.249Z,15.32
2022-09-12T01:36:23.433Z,15.45
2022-09-12T01:39:00.247Z,15.82
2022-09-12T01:41:41.344Z,14.85
2022-09-12T01:44:45.336Z,16.80
2022-09-12T01:47:22.407Z,16.83
2022-09-12T01:50:08.115Z,16.30
2022-09-12T01:52:39.510Z,16.27
2022-09-12T01:55:20.912Z,18.15
2022-09-12T01:57:56.584Z,15.52
2022-09-12T02:00:23.152Z,15.50
2022-09-12T02:03:02.199Z,16.27
2022-09-12T02:05:34.990Z,15.20
2022-09-12T02:08:35.672Z,16.48
2022-09-12T02:11:10.380Z,15.80
2022-09-12T02:13:58.594Z,17.15
2022-09-12T02:18:57.871Z,15.07
2022-09-12T02:21:26.001Z,16.77
2022-09-12T02:23:57.984Z,17.63
2022-09-12T02:26:29.964Z,18.23
2022-09-12T02:28:56.727Z,16.83
2022-09-12T02:31:44.746Z,18.42
2022-09-12T02:34:20.043Z,17.83
2022-09-12T02:37:18.313Z,18.20
2022-09-12T02:39:45.628Z,18.48
2022-09-12T02:42:12.387Z,19.23
2022-09-12T02:44:38.876Z,18.75
2022-09-12T02:47:29.944Z,18.63
2022-09-12T02:49:56.890Z,18.17
2022-09-12T02:52:23.369Z,18.40
2022-09-12T02:54:50.363Z,18.80
2022-09-12T02:57:23.006Z,18.70
2022-09-12T02:59:50.610Z,17.02
2022-09-12T03:02:35.093Z,17.77
2022-09-12T03:05:10.590Z,18.58
2022-09-12T03:07:58.439Z,18.10
2022-09-12T03:10:30.932Z,18.70
2022-09-12T03:13:15.876Z,17.85
2022-09-12T03:16:03.545Z,18.67
2022-09-12T03:18:53.718Z,18.92
2022-09-12T03:21:26.266Z,17.52
2022-09-12T03:24:07.999Z,19.50
2022-09-12T03:26:44.847Z,20.23
2022-09-12T03:29:11.923Z,18.80
2022-09-12T03:31:51.477Z,19.10
2022-09-12T03:34:18.803Z,18.83
2022-09-12T03:36:45.296Z,20.60
2022-09-12T03:39:11.882Z,19.92
2022-09-12T03:41:38.227Z,18.58
2022-09-12T03:44:04.876Z,18.25
2022-09-12T03:46:31.229Z,17.65
2022-09-12T03:48:57.588Z,18.38
2022-09-12T03:51:23.954Z,18.58
2022-09-12T03:53:50.451Z,19.77
2022-09-12T03:56:17.828Z,18.88
2022-09-12T03:58:44.194Z,20.35
2022-09-12T04:01:13.240Z,19.40
2022-09-12T04:03:40.974Z,20.40
2022-09-12T04:06:08.009Z,20.38
2022-09-12T04:08:35.456Z,18.23
2022-09-12T04:11:10.597Z,19.08
2022-09-12T04:13:37.748Z,20.35
2022-09-12T04:16:04.655Z,20.48
2022-09-12T04:18:31.739Z,18.63
2022-09-12T04:20:58.374Z,19.45
2022-09-12T04:23:24.884Z,19.27
2022-09-12T04:25:55.558Z,21.05
2022-09-12T04:28:22.142Z,20.40
2022-09-12T04:30:48.533Z,20.25
2022-09-12T04:33:15.065Z,19.27
2022-09-12T04:35:42.791Z,21.35
2022-09-12T04:38:09.299Z,20.17
2022-09-12T04:40:35.637Z,19.63
2022-09-12T04:43:02.003Z,20.02
2022-09-12T04:45:28.364Z,19.83
2022-09-12T04:47:54.729Z,21.33
2022-09-12T04:50:21.089Z,20.52
2022-09-12T04:52:51.351Z,20.65
2022-09-12T04:55:18.155Z,20.80
2022-09-12T04:57:44.537Z,21.27
2022-09-12T05:00:15.012Z,21.27
2022-09-12T05:02:41.850Z,21.23
2022-09-12T05:05:09.092Z,21.30
2022-09-12T05:07:36.073Z,21.83
2022-09-12T05:10:04.039Z,21.75
2022-09-12T05:12:31.105Z,21.67
2022-09-12T05:14:57.703Z,22.40
2022-09-12T05:17:24.093Z,21.85
2022-09-12T05:19:50.808Z,21.88
2022-09-12T05:22:17.149Z,22.02
2022-09-12T05:24:53.999Z,22.92
2022-09-12T05:27:20.483Z,21.48
2022-09-12T05:29:46.835Z,21.92
2022-09-12T05:32:13.261Z,21.58
2022-09-12T05:34:40.359Z,22.00
2022-09-12T05:37:06.721Z,21.33
2022-09-12T05:39:33.060Z,22.95
2022-09-12T05:41:59.409Z,22.33
2022-09-12T05:44:25.791Z,21.50
2022-09-12T05:46:53.531Z,21.85
2022-09-12T05:49:21.317Z,22.15
2022-09-12T05:51:47.687Z,22.98
2022-09-12T05:54:17.254Z,22.55
2022-09-12T05:56:44.378Z,22.63
2022-09-12T05:59:12.255Z,24.20
2022-09-12T06:01:38.920Z,23.77
2022-09-12T06:04:06.659Z,23.38
2022-09-12T06:06:37.388Z,23.40
2022-09-12T06:09:04.753Z,24.40
2022-09-12T06:11:33.252Z,22.92
2022-09-12T06:14:00.391Z,24.98
2022-09-12T06:16:31.828Z,24.58
2022-09-12T06:19:00.605Z,25.15
2022-09-12T06:21:28.246Z,24.17
2022-09-12T06:23:55.217Z,25.80
2022-09-12T06:26:23.443Z,26.63
2022-09-12T06:28:50.305Z,26.70
2022-09-12T06:31:19.021Z,26.05
2022-09-12T06:33:48.409Z,28.13
2022-09-12T06:36:21.167Z,25.23
2022-09-12T06:38:48.634Z,26.58
2022-09-12T06:41:15.794Z,26.73
2022-09-12T06:43:42.843Z,28.48
2022-09-12T06:46:10.192Z,28.45
2022-09-12T06:48:41.609Z,27.27
2022-09-12T06:51:15.320Z,26.40
2022-09-12T06:53:42.988Z,29.30
2022-09-12T06:56:14.172Z,27.65
2022-09-12T06:58:41.693Z,27.35
2022-09-12T07:01:20.323Z,27.58
2022-09-12T07:03:52.263Z,27.60
2022-09-12T07:06:20.344Z,28.75
2022-09-12T07:08:47.309Z,26.60
2022-09-12T07:11:25.134Z,26.67
2022-09-12T07:13:53.460Z,25.52
2022-09-12T07:16:20.407Z,25.77
2022-09-12T07:18:51.471Z,23.40
2022-09-12T07:21:17.829Z,25.85
2022-09-12T07:23:45.384Z,26.50
2022-09-12T07:26:13.030Z,25.83
2022-09-12T07:28:40.073Z,25.63
2022-09-12T07:31:12.054Z,23.70
2022-09-12T07:33:39.317Z,25.13
2022-09-12T07:36:08.580Z,24.05
2022-09-12T07:38:35.199Z,23.38
2022-09-12T07:41:01.772Z,24.25
2022-09-12T07:43:28.262Z,23.73
2022-09-12T07:45:58.347Z,23.20
2022-09-12T07:48:25.027Z,24.85
2022-09-12T07:50:59.723Z,22.30
2022-09-12T07:53:36.891Z,23.33
2022-09-12T07:56:04.409Z,23.40
2022-09-12T07:58:31.844Z,22.13
2022-09-12T08:01:23.139Z,19.50
2022-09-12T08:03:53.181Z,19.08
2022-09-12T08:06:21.279Z,18.13
2022-09-12T08:08:48.714Z,17.92
2022-09-12T08:11:16.928Z,18.02
2022-09-12T08:13:44.297Z,17.35
2022-09-12T08:16:16.962Z,17.05
2022-09-12T08:18:43.484Z,16.13
2022-09-12T08:21:14.549Z,15.63
2022-09-12T08:23:41.426Z,16.42
2022-09-12T08:26:08.199Z,14.63
2022-09-12T08:28:35.727Z,14.88
2022-09-12T08:31:07.173Z,15.10
2022-09-12T08:33:34.364Z,14.13
2022-09-12T08:36:11.432Z,14.30
2022-09-12T08:38:39.552Z,14.15
2022-09-12T08:41:10.584Z,13.05
2022-09-12T08:43:52.059Z,11.65
2022-09-12T08:46:38.740Z,12.63
2022-09-12T08:49:09.447Z,12.85
2022-09-12T08:51:36.182Z,12.63
2022-09-12T08:54:04.738Z,12.10
2022-09-12T08:56:35.519Z,10.30
2022-09-12T08:59:02.720Z,10.57
2022-09-12T09:01:42.128Z,9.98
2022-09-12T09:04:33.465Z,9.85
2022-09-12T09:07:11.988Z,9.93
2022-09-12T09:10:15.573Z,9.63
2022-09-12T09:13:02.524Z,9.02
2022-09-12T09:15:48.546Z,8.15
2022-09-12T09:18:16.608Z,8.07
2022-09-12T09:20:43.889Z,7.80
2022-09-12T09:23:28.124Z,8.25
2022-09-12T09:26:07.129Z,8.40
2022-09-12T09:28:46.953Z,8.90
2022-09-12T09:31:18.074Z,8.80
2022-09-12T09:33:46.764Z,8.13
2022-09-12T09:36:34.973Z,8.23
2022-09-12T09:39:06.574Z,8.02
2022-09-12T09:41:45.077Z,8.38
2022-09-12T09:44:11.615Z,7.30
2022-09-12T09:46:38.128Z,8.88
2022-09-12T09:49:06.887Z,8.75
2022-09-12T09:51:35.794Z,9.60
2022-09-12T09:54:20.245Z,9.25
2022-09-12T09:56:46.870Z,11.20
2022-09-12T09:59:20.260Z,10.32
2022-09-12T10:01:57.952Z,9.70
2022-09-12T10:04:27.941Z,10.27
2022-09-12T10:06:58.002Z,11.52
2022-09-12T10:09:29.262Z,11.73
2022-09-12T10:11:56.821Z,11.90
2022-09-12T10:14:30.921Z,12.18
2022-09-12T10:16:58.471Z,12.38
2022-09-12T10:19:35.416Z,12.60
2022-09-12T10:22:03.664Z,11.57
2022-09-12T10:24:29.891Z,12.40
2022-09-12T10:27:17.083Z,14.32
2022-09-12T10:29:56.653Z,12.55
2022-09-12T10:32:38.033Z,12.52
2022-09-12T10:35:08.964Z,10.45
2022-09-12T10:37:37.520Z,11.27
2022-09-12T10:40:06.468Z,11.38
2022-09-12T10:42:48.036Z,8.85
2022-09-12T10:45:20.367Z,10.98
2022-09-12T10:47:47.210Z,9.25
2022-09-12T10:50:23.692Z,9.77
2022-09-12T10:52:50.145Z,8.52
2022-09-12T10:55:16.814Z,8.45
2022-09-12T10:57:54.991Z,7.55
2022-09-12T11:00:27.625Z,6.85
2022-09-12T11:02:57.078Z,7.50
2022-09-12T11:08:14.829Z,7.93
2022-09-12T11:10:57.795Z,5.00
2022-09-12T11:13:45.671Z,5.15
2022-09-12T11:19:06.087Z,5.95
2022-09-12T11:22:01.727Z,5.32
2022-09-12T11:24:48.116Z,5.47
2022-09-12T11:27:21.365Z,5.35
2022-09-12T11:30:02.900Z,4.50
2022-09-12T11:32:56.964Z,5.30
2022-09-12T11:38:07.218Z,4.80
2022-09-12T11:40:55.798Z,5.68
2022-09-12T11:43:25.354Z,5.07
2022-09-12T11:45:52.911Z,5.22
2022-09-12T11:48:56.636Z,4.97
2022-09-12T11:51:40.125Z,5.05
2022-09-12T11:54:12.952Z,4.35
2022-09-12T11:56:45.079Z,4.53
2022-09-12T11:59:32.125Z,5.25
2022-09-12T12:02:02.545Z,4.63
2022-09-12T12:04:37.130Z,5.53
2022-09-12T12:07:07.247Z,4.65
2022-09-12T12:09:34.431Z,4.63
2022-09-12T12:12:06.525Z,5.00
2022-09-12T12:14:47.725Z,4.60
2022-09-12T12:17:19.432Z,4.40
2022-09-12T12:19:46.554Z,4.63
2022-09-12T12:22:18.542Z,4.47
2022-09-12T12:25:17.205Z,4.93
2022-09-12T12:28:01.321Z,4.80
2022-09-12T12:30:30.628Z,4.47
2022-09-12T12:35:43.255Z,5.30
2022-09-12T12:38:33.223Z,4.57
2022-09-12T12:41:17.851Z,4.75
2022-09-12T12:43:48.897Z,3.85
2022-09-12T12:46:19.574Z,4.95
2022-09-12T12:48:58.134Z,4.38
2022-09-12T12:51:36.877Z,3.95
2022-09-12T12:54:08.695Z,4.07
2022-09-12T12:56:42.095Z,4.22
2022-09-12T12:59:18.022Z,4.32
2022-09-12T13:01:56.082Z,3.75
2022-09-12T13:04:25.301Z,4.70
2022-09-12T13:07:08.152Z,5.05
2022-09-12T13:09:44.789Z,4.70
2022-09-12T13:12:18.455Z,4.38
2022-09-12T13:14:47.719Z,5.00
2022-09-12T13:19:49.783Z,5.00
2022-09-12T13:22:16.185Z,4.53
2022-09-12T13:24:44.653Z,5.20
2022-09-12T13:27:18.002Z,4.88
2022-09-12T13:29:44.413Z,4.25
2022-09-12T13:32:11.066Z,4.82
2022-09-12T13:37:50.874Z,3.38
2022-09-12T13:40:20.830Z,4.13
2022-09-12T13:42:53.720Z,4.00
2022-09-12T13:45:25.016Z,4.43
2022-09-12T13:48:01.869Z,4.15
2022-09-12T13:50:31.900Z,4.43
2022-09-12T13:53:00.549Z,3.95
2022-09-12T13:55:32.092Z,3.88
2022-09-12T13:58:04.045Z,3.63
2022-09-12T14:00:32.241Z,3.50
2022-09-12T14:03:37.409Z,3.60
2022-09-12T14:06:06.180Z,3.17
2022-09-12T14:08:33.361Z,3.72
2022-09-12T14:10:59.993Z,3.83
2022-09-12T14:13:26.795Z,3.80
2022-09-12T14:15:54.836Z,3.53
2022-09-12T14:18:30.044Z,4.07
2022-09-12T14:23:32.108Z,3.47
2022-09-12T14:26:01.993Z,3.92
2022-09-12T14:28:30.161Z,3.28
2022-09-12T14:31:10.365Z,3.58
2022-09-12T14:33:54.068Z,3.58
2022-09-12T14:36:26.469Z,2.80
2022-09-12T14:38:56.080Z,3.75
2022-09-12T14:41:28.576Z,3.42
2022-09-12T14:44:01.207Z,3.50
2022-09-12T14:46:33.753Z,3.17
2022-09-12T14:49:06.488Z,3.33
2022-09-12T14:51:35.413Z,3.22
2022-09-12T14:54:02.641Z,3.45
2022-09-12T14:56:41.196Z,3.40
2022-09-12T14:59:40.698Z,3.15
2022-09-12T15:02:22.419Z,3.22
2022-09-12T15:04:53.048Z,3.20
2022-09-12T15:07:37.108Z,3.47
2022-09-12T15:10:33.848Z,3.22
2022-09-12T15:13:09.299Z,3.33
2022-09-12T15:15:40.288Z,3.58
2022-09-12T15:18:07.206Z,3.20
2022-09-12T15:20:36.538Z,3.38
2022-09-12T15:23:03.024Z,3.35
2022-09-12T15:25:29.513Z,3.80
2022-09-12T15:27:56.367Z,3.70
2022-09-12T15:30:22.751Z,3.85
2022-09-12T15:32:49.281Z,3.40
2022-09-12T15:35:23.279Z,3.60
2022-09-12T15:37:49.890Z,3.60
2022-09-12T15:40:16.881Z,3.33
2022-09-12T15:42:43.633Z,3.53
2022-09-12T15:45:22.776Z,3.78
2022-09-12T15:47:49.244Z,3.42
2022-09-12T15:50:15.673Z,3.30
2022-09-12T15:52:42.637Z,3.20
2022-09-12T15:55:16.721Z,3.28
2022-09-12T15:57:43.314Z,3.13
2022-09-12T16:00:10.568Z,3.13
2022-09-12T16:02:36.967Z,2.90
2022-09-12T16:05:04.684Z,3.10
2022-09-12T16:07:31.038Z,3.35
2022-09-12T16:09:57.439Z,3.17
2022-09-12T16:12:23.781Z,3.42
2022-09-12T16:14:50.131Z,3.33
2022-09-12T16:17:16.796Z,2.90
2022-09-12T16:19:43.244Z,3.15
2022-09-12T16:22:09.592Z,3.00
2022-09-12T16:24:36.081Z,3.30
2022-09-12T16:27:02.435Z,3.63
2022-09-12T16:29:28.896Z,3.40
2022-09-12T16:31:55.241Z,3.13
2022-09-12T16:34:21.599Z,3.15
2022-09-12T16:36:47.980Z,3.30
2022-09-12T16:39:14.584Z,2.88
2022-09-12T16:41:42.577Z,3.10
2022-09-12T16:44:10.089Z,3.38
2022-09-12T16:46:36.485Z,3.13
2022-09-12T16:49:03.511Z,3.45
2022-09-12T16:51:35.827Z,3.13
2022-09-12T16:54:02.192Z,3.28
2022-09-12T16:56:28.896Z,3.33
2022-09-12T16:58:55.501Z,3.45
2022-09-12T17:01:23.649Z,3.63
2022-09-12T17:03:54.692Z,3.63
2022-09-12T17:06:21.816Z,3.78
2022-09-12T17:08:52.079Z,3.80
2022-09-12T17:11:30.906Z,4.03
2022-09-12T17:14:06.743Z,3.50
2022-09-12T17:16:35.893Z,3.65
2022-09-12T17:19:02.712Z,3.67
2022-09-12T17:21:29.173Z,3.67
2022-09-12T17:23:55.861Z,3.53
2022-09-12T17:26:22.356Z,3.67
2022-09-12T17:28:48.762Z,3.35
2022-09-12T17:31:15.428Z,3.17
2022-09-12T17:33:42.332Z,3.58
2022-09-12T17:36:15.093Z,3.28
2022-09-12T17:38:42.832Z,4.20
2022-09-12T17:41:14.943Z,3.55
2022-09-12T17:43:41.969Z,3.90
2022-09-12T17:46:08.548Z,3.50
2022-09-12T17:48:35.501Z,3.22
2022-09-12T17:51:14.049Z,3.25
2022-09-12T17:53:41.440Z,3.33
2022-09-12T17:56:08.259Z,3.38
2022-09-12T17:58:35.204Z,4.18
2022-09-12T18:01:25.737Z,3.75
2022-09-12T18:03:56.627Z,3.65
2022-09-12T18:06:23.771Z,4.05
2022-09-12T18:08:50.592Z,3.65
2022-09-12T18:11:17.254Z,3.90
2022-09-12T18:13:43.721Z,3.88
2022-09-12T18:16:12.065Z,3.92
2022-09-12T18:18:38.582Z,3.83
2022-09-12T18:21:07.044Z,3.60
2022-09-12T18:23:33.662Z,3.97
2022-09-12T18:26:05.886Z,4.15
2022-09-12T18:28:37.095Z,3.85
2022-09-12T18:31:04.343Z,3.67
2022-09-12T18:33:30.927Z,4.47
2022-09-12T18:35:57.308Z,4.60
2022-09-12T18:38:23.719Z,4.80
2022-09-12T18:40:50.190Z,4.70
2022-09-12T18:43:16.540Z,4.22
2022-09-12T18:45:42.880Z,4.15
2022-09-12T18:48:09.315Z,4.15
2022-09-12T18:50:35.686Z,4.30
2022-09-12T18:53:02.056Z,4.28
2022-09-12T18:55:30.198Z,4.13
2022-09-12T18:57:56.604Z,4.40
2022-09-12T19:00:22.973Z,4.15
2022-09-12T19:02:49.387Z,4.45
2022-09-12T19:05:15.874Z,4.45
2022-09-12T19:07:42.276Z,5.28
2022-09-12T19:10:08.976Z,4.68
2022-09-12T19:12:35.457Z,4.70
2022-09-12T19:15:01.985Z,4.85
2022-09-12T19:17:28.404Z,4.90
2022-09-12T19:19:55.389Z,4.68
2022-09-12T19:22:22.135Z,4.60
2022-09-12T19:24:48.483Z,5.05
2022-09-12T19:27:15.990Z,4.57
2022-09-12T19:29:42.424Z,5.00
2022-09-12T19:32:08.803Z,4.72
2022-09-12T19:34:35.325Z,4.55
2022-09-12T19:37:01.670Z,4.25
2022-09-12T19:39:28.051Z,4.53
2022-09-12T19:41:54.416Z,4.35
2022-09-12T19:44:20.900Z,4.57
2022-09-12T19:46:47.654Z,5.10
2022-09-12T19:49:14.047Z,4.82
2022-09-12T19:51:40.450Z,5.20
2022-09-12T19:54:07.627Z,4.22
2022-09-12T19:56:34.020Z,4.57
2022-09-12T19:59:00.364Z,4.38
2022-09-12T20:01:28.344Z,4.43
2022-09-12T20:03:55.496Z,4.40
2022-09-12T20:06:22.395Z,4.43
2022-09-12T20:08:48.985Z,3.95
2022-09-12T20:11:17.805Z,4.28
2022-09-12T20:13:45.196Z,4.05
2022-09-12T20:16:21.772Z,3.92
2022-09-12T20:18:53.055Z,4.30
2022-09-12T20:21:21.786Z,4.35
2022-09-12T20:23:48.129Z,4.40
2022-09-12T20:26:14.780Z,4.53
2022-09-12T20:28:41.563Z,4.07
2022-09-12T20:31:15.991Z,4.50
2022-09-12T20:33:43.260Z,4.40
2022-09-12T20:36:14.708Z,4.50
2022-09-12T20:38:42.531Z,4.90
2022-09-12T20:41:10.650Z,4.72
2022-09-12T20:43:38.546Z,4.07
2022-09-12T20:46:06.262Z,4.40
2022-09-12T20:48:32.744Z,4.40
2022-09-12T20:50:59.650Z,4.40
2022-09-12T20:53:26.098Z,4.85
2022-09-12T20:55:52.812Z,4.45
2022-09-12T20:58:20.239Z,4.75
2022-09-12T21:00:47.157Z,4.65
2022-09-12T21:03:14.723Z,4.20
2022-09-12T21:05:46.188Z,4.85
2022-09-12T21:08:13.304Z,4.70
2022-09-12T21:10:44.078Z,4.68
2022-09-12T21:13:11.301Z,4.53
2022-09-12T21:15:38.508Z,5.30
2022-09-12T21:18:05.160Z,5.00
2022-09-12T21:20:32.132Z,4.72
2022-09-12T21:22:58.615Z,5.72
2022-09-12T21:25:25.048Z,4.90
2022-09-12T21:27:51.403Z,4.70
2022-09-12T21:30:17.912Z,4.68
2022-09-12T21:32:44.840Z,4.85
2022-09-12T21:35:11.216Z,4.63
2022-09-12T21:37:37.583Z,4.80
2022-09-12T21:40:04.280Z,4.63
2022-09-12T21:42:31.624Z,4.78
2022-09-12T21:44:57.970Z,4.90
2022-09-12T21:47:24.586Z,5.10
2022-09-12T21:49:50.988Z,5.35
2022-09-12T21:52:20.309Z,5.05
2022-09-12T21:54:46.700Z,5.07
2022-09-12T21:57:13.077Z,5.10
2022-09-12T21:59:39.465Z,4.82
2022-09-12T22:02:08.455Z,5.05
2022-09-12T22:04:34.869Z,4.95
2022-09-12T22:07:01.608Z,4.93
2022-09-12T22:09:27.977Z,4.97
2022-09-12T22:11:54.320Z,5.30
2022-09-12T22:14:20.779Z,5.93
2022-09-12T22:16:47.128Z,5.43
2022-09-12T22:19:14.989Z,5.82
2022-09-12T22:22:01.314Z,5.68
2022-09-12T22:24:27.724Z,5.60
2022-09-12T22:26:54.924Z,5.60
2022-09-12T22:29:21.732Z,5.78
2022-09-12T22:31:48.146Z,5.53
2022-09-12T22:34:15.032Z,6.00
2022-09-12T22:36:41.672Z,5.60
2022-09-12T22:39:08.557Z,5.72
2022-09-12T22:41:34.912Z,5.50
2022-09-12T22:44:01.510Z,5.45
2022-09-12T22:46:29.924Z,5.68
2022-09-12T22:48:56.376Z,6.10
2022-09-12T22:51:22.721Z,6.07
2022-09-12T22:53:49.248Z,5.10
2022-09-12T22:56:15.700Z,5.20
2022-09-12T22:58:43.455Z,5.35
2022-09-12T23:01:10.354Z,5.35
2022-09-12T23:03:37.076Z,4.90
2022-09-12T23:06:04.355Z,5.80
2022-09-12T23:08:30.735Z,5.25
2022-09-12T23:11:10.689Z,5.63
2022-09-12T23:13:38.085Z,5.13
2022-09-12T23:16:07.030Z,5.57
2022-09-12T23:18:35.861Z,5.47
2022-09-12T23:21:12.717Z,5.43
2022-09-12T23:23:39.204Z,5.95
2022-09-12T23:26:20.280Z,5.65
2022-09-12T23:28:52.697Z,5.30
2022-09-12T23:31:20.028Z,5.55
2022-09-12T23:33:46.892Z,5.65
2022-09-12T23:36:16.708Z,5.95
2022-09-12T23:38:45.490Z,6.10
2022-09-12T23:41:13.538Z,6.18
2022-09-12T23:43:40.063Z,6.43
2022-09-12T23:46:07.136Z,6.82
2022-09-12T23:48:34.016Z,6.30
2022-09-12T23:51:00.472Z,5.75
2022-09-12T23:53:27.213Z,5.80
2022-09-12T23:55:53.861Z,6.05
2022-09-12T23:58:22.222Z,6.00
